CheckWX is a tool to help pilots better visualize weather data.  It is not intended as a substitute for an official pre-flight weather briefing.

14:01:58 UTC

KQFV METAR
Sachang
Sachang, South Korea
Current

12 mins ago

KQFV 201350Z AUTO 14002KT 9999 OVC038 26/22 A2959 RMK A02 TSNO
Observed
Jul-20 @ 13:50 UTC
Wind
  • 140° at 2 KTS
Visibility
10,000+ meters
Flight Rules
VFR
Cloud Levels
  • Overcast at 3,800' AGL
Temperature
26°C / 79°F
Dewpoint
22°C / 72°F
Humidity
79%
Altimeter
29.59" Hg
Pressure
1002.02 hPa
Previous

32 mins ago

KQFV 201330Z AUTO 10002KT 9999 OVC040 26/22 A2960 RMK A02 TSNO
Observed
Jul-20 @ 13:30 UTC
Wind
  • 100° at 2 KTS
Visibility
10,000+ meters
Flight Rules
VFR
Cloud Levels
  • Overcast at 4,000' AGL
Temperature
26°C / 79°F
Dewpoint
22°C / 72°F
Humidity
79%
Altimeter
29.6" Hg
Pressure
1002.42 hPa
Previous

42 mins ago

KQFV 201320Z AUTO 07003KT 9999 OVC040 26/21 A2960 RMK A02 TSNO
Observed
Jul-20 @ 13:20 UTC
Wind
  • 070° at 3 KTS
Visibility
10,000+ meters
Flight Rules
VFR
Cloud Levels
  • Overcast at 4,000' AGL
Temperature
26°C / 79°F
Dewpoint
21°C / 70°F
Humidity
74%
Altimeter
29.6" Hg
Pressure
1002.42 hPa